createdAt,value
2023-02-06T00:02:03.470Z,102703.83
2023-02-06T00:04:33.964Z,102701.63
2023-02-06T00:07:04.303Z,102701.70
2023-02-06T00:09:34.692Z,102704.04
2023-02-06T00:12:05.180Z,102705.16
2023-02-06T00:14:36.464Z,102709.41
2023-02-06T00:17:05.484Z,102709.67
2023-02-06T00:19:35.915Z,102711.48
2023-02-06T00:22:06.449Z,102713.80
2023-02-06T00:24:36.955Z,102714.90
2023-02-06T00:27:07.836Z,102713.90
2023-02-06T00:29:38.275Z,102713.27
2023-02-06T00:32:08.877Z,102711.75
2023-02-06T00:34:39.304Z,102714.42
2023-02-06T00:37:10.213Z,102715.00
2023-02-06T00:39:40.540Z,102722.17
2023-02-06T00:42:11.010Z,102728.87
2023-02-06T00:44:42.050Z,102729.62
2023-02-06T00:47:12.577Z,102734.21
2023-02-06T00:49:43.233Z,102737.76
2023-02-06T00:52:13.697Z,102739.05
2023-02-06T00:54:44.100Z,102735.14
2023-02-06T00:57:14.456Z,102736.63
2023-02-06T00:59:45.083Z,102738.08
2023-02-06T01:02:15.452Z,102734.17
2023-02-06T01:04:46.243Z,102741.73
2023-02-06T01:07:16.644Z,102742.52
2023-02-06T01:09:47.001Z,102741.60
2023-02-06T01:12:17.472Z,102745.05
2023-02-06T01:14:47.830Z,102751.41
2023-02-06T01:17:18.320Z,102742.69
2023-02-06T01:19:48.683Z,102743.17
2023-02-06T01:22:19.122Z,102750.42
2023-02-06T01:24:49.635Z,102753.16
2023-02-06T01:27:20.086Z,102757.14
2023-02-06T01:29:50.523Z,102760.59
2023-02-06T01:32:21.140Z,102762.77
2023-02-06T01:34:52.184Z,102770.79
2023-02-06T01:37:22.522Z,102770.86
2023-02-06T01:39:52.860Z,102770.23
2023-02-06T01:42:23.154Z,102769.64
2023-02-06T01:45:35.823Z,102765.91
2023-02-06T01:48:09.729Z,102762.70
2023-02-06T01:50:43.250Z,102761.21
2023-02-06T01:53:16.332Z,102759.34
2023-02-06T01:55:49.598Z,102757.13
2023-02-06T01:58:27.806Z,102751.27
2023-02-06T02:01:00.247Z,102748.60
2023-02-06T02:03:32.693Z,102752.48
2023-02-06T02:06:07.827Z,102751.96
2023-02-06T02:08:40.324Z,102744.20
2023-02-06T02:11:16.560Z,102740.61
2023-02-06T02:13:47.449Z,102740.42
2023-02-06T02:16:23.824Z,102741.81
2023-02-06T02:19:07.006Z,102744.02
2023-02-06T02:22:10.735Z,102746.61
2023-02-06T02:25:23.366Z,102748.98
2023-02-06T02:28:13.073Z,102744.70
2023-02-06T02:31:00.283Z,102747.69
2023-02-06T02:33:48.122Z,102747.01
2023-02-06T02:36:23.540Z,102752.95
2023-02-06T02:39:06.363Z,102753.66
2023-02-06T02:41:45.374Z,102748.98
2023-02-06T02:44:27.394Z,102750.52
2023-02-06T02:47:03.223Z,102749.98
2023-02-06T02:49:38.114Z,102746.16
2023-02-06T02:52:08.662Z,102740.95
2023-02-06T02:54:38.998Z,102738.52
2023-02-06T02:57:15.552Z,102742.20
2023-02-06T02:59:48.952Z,102740.82
2023-02-06T03:02:24.150Z,102740.67
2023-02-06T03:04:57.695Z,102741.75
2023-02-06T03:07:38.632Z,102742.38
2023-02-06T03:10:20.463Z,102741.29
2023-02-06T03:12:56.225Z,102740.92
2023-02-06T03:15:32.164Z,102739.20
2023-02-06T03:18:09.123Z,102740.72
2023-02-06T03:20:44.099Z,102740.58
2023-02-06T03:23:19.213Z,102741.69
2023-02-06T03:25:52.794Z,102743.02
2023-02-06T03:28:27.069Z,102738.96
2023-02-06T03:31:00.704Z,102743.73
2023-02-06T03:33:36.786Z,102752.67
2023-02-06T03:36:11.259Z,102756.91
2023-02-06T03:38:42.320Z,102757.13
2023-02-06T03:41:13.634Z,102754.92
2023-02-06T03:43:43.766Z,102751.69
2023-02-06T03:46:20.178Z,102747.92
2023-02-06T03:48:55.117Z,102744.28
2023-02-06T03:51:31.154Z,102743.11
2023-02-06T03:54:05.588Z,102736.71
2023-02-06T03:56:40.235Z,102743.86
2023-02-06T03:59:10.881Z,102743.86
2023-02-06T04:01:45.185Z,102742.45
2023-02-06T04:04:17.286Z,102741.68
2023-02-06T04:06:47.753Z,102750.07
2023-02-06T04:09:18.277Z,102747.30
2023-02-06T04:11:49.187Z,102750.10
2023-02-06T04:14:19.525Z,102759.85
2023-02-06T04:16:50.042Z,102762.77
2023-02-06T04:19:20.519Z,102764.77
2023-02-06T04:21:51.112Z,102761.44
2023-02-06T04:24:21.525Z,102763.33
2023-02-06T04:26:51.866Z,102764.80
2023-02-06T04:29:22.254Z,102761.70
2023-02-06T04:31:52.783Z,102759.23
2023-02-06T04:34:23.191Z,102761.77
2023-02-06T04:36:53.577Z,102763.27
2023-02-06T04:39:23.957Z,102760.86
2023-02-06T04:41:55.232Z,102753.47
2023-02-06T04:44:24.293Z,102749.17
2023-02-06T04:46:54.596Z,102743.63
2023-02-06T04:49:24.989Z,102735.30
2023-02-06T04:51:55.505Z,102736.50
2023-02-06T04:54:26.335Z,102742.35
2023-02-06T04:56:56.601Z,102743.16
2023-02-06T04:59:27.077Z,102747.36
2023-02-06T05:01:57.414Z,102749.64
2023-02-06T05:04:28.279Z,102750.30
2023-02-06T05:06:58.730Z,102750.96
2023-02-06T05:09:29.457Z,102748.64
2023-02-06T05:11:59.805Z,102755.20
2023-02-06T05:14:30.436Z,102761.23
2023-02-06T05:17:00.947Z,102765.56
2023-02-06T05:19:31.439Z,102770.58
2023-02-06T05:22:01.782Z,102768.52
2023-02-06T05:24:32.573Z,102766.20
2023-02-06T05:27:03.037Z,102768.52
2023-02-06T05:29:33.607Z,102769.11
2023-02-06T05:32:04.042Z,102767.25
2023-02-06T05:34:34.462Z,102768.21
2023-02-06T05:37:04.874Z,102758.76
2023-02-06T05:39:35.150Z,102750.69
2023-02-06T05:42:05.825Z,102746.61
2023-02-06T05:44:36.293Z,102750.88
2023-02-06T05:47:06.806Z,102753.73
2023-02-06T05:49:37.148Z,102749.84
2023-02-06T05:52:07.590Z,102760.00
2023-02-06T05:54:38.191Z,102759.94
2023-02-06T05:57:08.634Z,102761.29
2023-02-06T05:59:39.441Z,102755.34
2023-02-06T06:02:10.475Z,102755.60
2023-02-06T06:04:40.925Z,102756.92
2023-02-06T06:07:11.417Z,102753.05
2023-02-06T06:09:41.960Z,102752.41
2023-02-06T06:12:12.434Z,102754.39
2023-02-06T06:14:42.936Z,102754.63
2023-02-06T06:17:13.476Z,102744.75
2023-02-06T06:19:44.025Z,102739.84
2023-02-06T06:22:14.464Z,102746.70
2023-02-06T06:24:44.998Z,102738.05
2023-02-06T06:27:15.616Z,102728.30
2023-02-06T06:29:45.934Z,102727.02
2023-02-06T06:32:16.354Z,102733.61
2023-02-06T06:34:46.704Z,102725.93
2023-02-06T06:37:19.808Z,102729.90
2023-02-06T06:39:50.195Z,102744.84
2023-02-06T06:42:20.635Z,102747.16
2023-02-06T06:44:50.937Z,102743.05
2023-02-06T06:47:21.528Z,102746.11
2023-02-06T06:49:51.975Z,102748.06
2023-02-06T06:52:25.331Z,102748.33
2023-02-06T06:54:56.364Z,102751.17
2023-02-06T06:57:26.911Z,102751.96
2023-02-06T06:59:57.260Z,102747.89
2023-02-06T07:02:28.489Z,102746.73
2023-02-06T07:04:57.808Z,102752.98
2023-02-06T07:07:28.341Z,102748.80
2023-02-06T07:09:59.648Z,102747.79
2023-02-06T07:12:29.034Z,102756.38
2023-02-06T07:14:59.481Z,102774.61
2023-02-06T07:17:30.280Z,102780.06
2023-02-06T07:20:01.041Z,102780.52
2023-02-06T07:22:31.565Z,102789.13
2023-02-06T07:25:02.233Z,102781.08
2023-02-06T07:27:33.005Z,102769.70
2023-02-06T07:30:05.600Z,102771.37
2023-02-06T07:32:38.307Z,102767.66
2023-02-06T07:35:09.929Z,102765.16
2023-02-06T07:37:40.503Z,102764.63
2023-02-06T07:40:13.396Z,102764.91
2023-02-06T07:42:44.451Z,102764.31
2023-02-06T07:45:27.863Z,102768.39
2023-02-06T07:47:58.356Z,102771.75
2023-02-06T07:50:28.895Z,102774.08
2023-02-06T07:52:59.450Z,102780.52
2023-02-06T07:55:30.794Z,102780.73
2023-02-06T07:57:59.909Z,102773.13
2023-02-06T08:00:30.329Z,102771.63
2023-02-06T08:03:00.883Z,102767.86
2023-02-06T08:05:32.453Z,102770.91
2023-02-06T08:08:03.464Z,102770.47
2023-02-06T08:10:34.229Z,102761.33
2023-02-06T08:13:04.780Z,102756.70
2023-02-06T08:15:36.150Z,102758.65
2023-02-06T08:18:07.244Z,102761.28
2023-02-06T08:20:37.722Z,102762.55
2023-02-06T08:23:08.617Z,102758.11
2023-02-06T08:25:39.443Z,102758.86
2023-02-06T08:28:10.033Z,102760.29
2023-02-06T08:30:42.562Z,102758.05
2023-02-06T08:33:14.350Z,102758.13
2023-02-06T08:35:44.978Z,102750.38
2023-02-06T08:38:15.931Z,102755.48
2023-02-06T08:40:49.503Z,102760.05
2023-02-06T08:43:20.146Z,102758.03
2023-02-06T08:45:53.623Z,102757.61
2023-02-06T08:48:24.204Z,102754.39
2023-02-06T08:51:04.795Z,102748.06
2023-02-06T08:53:36.061Z,102748.88
2023-02-06T08:56:09.330Z,102754.55
2023-02-06T08:58:41.151Z,102753.44
2023-02-06T09:01:16.484Z,102748.66
2023-02-06T09:03:47.928Z,102747.56
2023-02-06T09:06:18.582Z,102744.41
2023-02-06T09:08:49.084Z,102744.54
2023-02-06T09:11:22.472Z,102747.69
2023-02-06T09:13:55.285Z,102743.25
2023-02-06T09:16:33.314Z,102746.35
2023-02-06T09:19:04.817Z,102743.33
2023-02-06T09:21:36.773Z,102737.15
2023-02-06T09:24:09.293Z,102735.80
2023-02-06T09:26:57.969Z,102738.80
2023-02-06T09:29:32.001Z,102743.42
2023-02-06T09:32:03.952Z,102753.55
2023-02-06T09:34:34.712Z,102756.21
2023-02-06T09:37:11.244Z,102755.54
2023-02-06T09:39:42.194Z,102754.86
2023-02-06T09:42:20.448Z,102750.20
2023-02-06T09:44:57.400Z,102755.55
2023-02-06T09:47:32.895Z,102754.02
2023-02-06T09:50:08.006Z,102749.40
2023-02-06T09:53:05.444Z,102739.63
2023-02-06T09:55:40.781Z,102725.21
2023-02-06T09:58:23.572Z,102719.83
2023-02-06T10:00:59.629Z,102717.24
2023-02-06T10:03:52.387Z,102716.02
2023-02-06T10:06:28.327Z,102713.52
2023-02-06T10:09:04.342Z,102714.53
2023-02-06T10:11:42.944Z,102712.56
2023-02-06T10:14:22.500Z,102711.48
2023-02-06T10:16:57.164Z,102707.04
2023-02-06T10:19:38.188Z,102701.85
2023-02-06T10:22:15.187Z,102699.15
2023-02-06T10:24:51.937Z,102699.37
2023-02-06T10:27:22.809Z,102700.31
2023-02-06T10:29:53.431Z,102693.08
2023-02-06T10:32:39.661Z,102689.66
2023-02-06T10:35:24.360Z,102688.34
2023-02-06T10:38:15.479Z,102680.06
2023-02-06T10:40:54.304Z,102682.66
2023-02-06T10:43:34.905Z,102677.04
2023-02-06T10:46:20.403Z,102670.52
2023-02-06T10:48:58.881Z,102673.21
2023-02-06T10:51:33.874Z,102668.49
2023-02-06T10:54:07.541Z,102664.14
2023-02-06T10:56:41.581Z,102660.14
2023-02-06T10:59:24.743Z,102659.45
2023-02-06T11:02:14.776Z,102663.36
2023-02-06T11:04:51.638Z,102660.60
2023-02-06T11:07:35.434Z,102659.92
2023-02-06T11:10:07.124Z,102650.30
2023-02-06T11:12:41.986Z,102650.13
2023-02-06T11:16:17.453Z,102643.70
2023-02-06T11:18:45.096Z,102636.14
2023-02-06T11:21:36.724Z,102637.24
2023-02-06T11:24:12.945Z,102641.38
2023-02-06T11:26:46.715Z,102635.50
2023-02-06T11:29:20.690Z,102625.86
2023-02-06T11:31:53.147Z,102621.80
2023-02-06T11:34:28.737Z,102613.30
2023-02-06T11:37:02.193Z,102611.48
2023-02-06T11:39:34.871Z,102609.70
2023-02-06T11:42:19.913Z,102608.59
2023-02-06T11:45:10.114Z,102610.89
2023-02-06T11:47:40.542Z,102614.23
2023-02-06T11:50:29.606Z,102604.81
2023-02-06T11:53:11.921Z,102606.55
2023-02-06T11:55:43.064Z,102609.15
2023-02-06T11:58:23.457Z,102609.71
2023-02-06T12:01:04.278Z,102607.16
2023-02-06T12:03:40.341Z,102603.48
2023-02-06T12:06:19.217Z,102600.13
2023-02-06T12:08:53.170Z,102585.25
2023-02-06T12:11:30.321Z,102586.75
2023-02-06T12:14:05.880Z,102573.95
2023-02-06T12:16:40.871Z,102569.71
2023-02-06T12:19:17.501Z,102574.63
2023-02-06T12:21:51.697Z,102574.19
2023-02-06T12:24:28.765Z,102570.44
2023-02-06T12:27:04.000Z,102567.39
2023-02-06T12:29:41.716Z,102557.86
2023-02-06T12:32:18.420Z,102550.98
2023-02-06T12:34:54.556Z,102550.23
2023-02-06T12:37:31.951Z,102559.02
2023-02-06T12:40:03.370Z,102561.80
2023-02-06T12:42:37.684Z,102558.48
2023-02-06T12:45:18.670Z,102561.06
2023-02-06T12:47:53.860Z,102561.17
2023-02-06T12:50:29.083Z,102553.45
2023-02-06T12:53:05.802Z,102544.75
2023-02-06T12:55:40.853Z,102535.48
2023-02-06T12:58:29.326Z,102537.56
2023-02-06T13:01:31.597Z,102533.19
2023-02-06T13:04:06.426Z,102529.04
2023-02-06T13:06:47.404Z,102529.55
2023-02-06T13:09:25.233Z,102520.61
2023-02-06T13:12:07.004Z,102523.55
2023-02-06T13:14:40.028Z,102523.36
2023-02-06T13:17:17.523Z,102520.92
2023-02-06T13:20:02.679Z,102522.86
2023-02-06T13:22:45.903Z,102514.73
2023-02-06T13:25:50.660Z,102515.90
2023-02-06T13:28:58.729Z,102513.48
2023-02-06T13:31:33.769Z,102517.94
2023-02-06T13:34:09.129Z,102519.58
2023-02-06T13:36:49.879Z,102514.38
2023-02-06T13:39:34.766Z,102515.14
2023-02-06T13:42:33.417Z,102521.14
2023-02-06T13:45:06.994Z,102511.36
2023-02-06T13:48:05.205Z,102506.79
2023-02-06T13:51:05.019Z,102504.14
2023-02-06T13:54:14.592Z,102499.89
2023-02-06T13:56:54.162Z,102505.35
2023-02-06T13:59:29.796Z,102501.88
2023-02-06T14:02:12.341Z,102495.77
2023-02-06T14:04:44.868Z,102498.13
2023-02-06T14:07:36.133Z,102498.19
2023-02-06T14:10:24.181Z,102499.42
2023-02-06T14:13:19.463Z,102491.26
2023-02-06T14:15:59.266Z,102496.92
2023-02-06T14:18:43.753Z,102497.57
2023-02-06T14:21:25.191Z,102500.65
2023-02-06T14:24:34.705Z,102501.48
2023-02-06T14:27:20.755Z,102504.98
2023-02-06T14:29:57.130Z,102493.16
2023-02-06T14:32:37.802Z,102496.58
2023-02-06T14:35:28.611Z,102496.64
2023-02-06T14:38:23.348Z,102493.65
2023-02-06T14:40:57.013Z,102493.48
2023-02-06T14:43:32.199Z,102491.02
2023-02-06T14:46:08.484Z,102489.98
2023-02-06T14:48:46.402Z,102489.27
2023-02-06T14:51:26.646Z,102481.21
2023-02-06T14:54:01.720Z,102479.48
2023-02-06T14:56:36.810Z,102479.82
2023-02-06T14:59:20.157Z,102480.34
2023-02-06T15:01:54.923Z,102485.06
2023-02-06T15:04:27.181Z,102484.00
2023-02-06T15:07:00.583Z,102488.52
2023-02-06T15:09:34.135Z,102489.67
2023-02-06T15:12:19.693Z,102489.98
2023-02-06T15:14:57.034Z,102483.45
2023-02-06T15:17:28.296Z,102476.41
2023-02-06T15:20:13.655Z,102478.30
2023-02-06T15:22:44.736Z,102470.71
2023-02-06T15:25:35.948Z,102475.70
2023-02-06T15:28:08.674Z,102477.73
2023-02-06T15:30:40.132Z,102474.68
2023-02-06T15:33:19.420Z,102480.02
2023-02-06T15:35:54.353Z,102479.95
2023-02-06T15:38:28.544Z,102481.48
2023-02-06T15:41:02.205Z,102474.29
2023-02-06T15:43:34.321Z,102471.80
2023-02-06T15:46:07.910Z,102472.50
2023-02-06T15:48:43.924Z,102474.91
2023-02-06T15:51:24.368Z,102478.88
2023-02-06T15:54:06.557Z,102474.82
2023-02-06T15:56:41.075Z,102477.77
2023-02-06T15:59:20.456Z,102482.80
2023-02-06T16:01:52.281Z,102485.71
2023-02-06T16:04:26.882Z,102491.63
2023-02-06T16:07:09.266Z,102497.52
2023-02-06T16:09:44.232Z,102494.16
2023-02-06T16:12:16.817Z,102492.92
2023-02-06T16:14:58.064Z,102489.92
2023-02-06T16:17:35.814Z,102493.05
2023-02-06T16:20:34.010Z,102491.84
2023-02-06T16:23:27.025Z,102494.10
2023-02-06T16:26:07.468Z,102490.61
2023-02-06T16:28:59.004Z,102494.98
2023-02-06T16:31:35.828Z,102501.09
2023-02-06T16:34:24.441Z,102510.36
2023-02-06T16:36:56.880Z,102510.20
2023-02-06T16:39:27.378Z,102515.09
2023-02-06T16:41:58.200Z,102518.40
2023-02-06T16:44:43.832Z,102517.53
2023-02-06T16:47:20.618Z,102512.64
2023-02-06T16:49:52.214Z,102516.48
2023-02-06T16:52:27.038Z,102518.21
2023-02-06T16:54:58.969Z,102529.86
2023-02-06T16:57:33.210Z,102528.80
2023-02-06T17:00:06.146Z,102527.90
2023-02-06T17:02:37.095Z,102528.05
2023-02-06T17:05:08.404Z,102531.84
2023-02-06T17:07:37.656Z,102533.91
2023-02-06T17:10:10.008Z,102538.20
2023-02-06T17:12:41.219Z,102530.46
2023-02-06T17:15:13.351Z,102540.36
2023-02-06T17:17:43.944Z,102535.91
2023-02-06T17:20:30.181Z,102544.57
2023-02-06T17:23:00.632Z,102542.91
2023-02-06T17:25:31.506Z,102548.41
2023-02-06T17:28:02.268Z,102544.98
2023-02-06T17:30:32.834Z,102539.63
2023-02-06T17:33:03.285Z,102549.25
2023-02-06T17:35:36.639Z,102552.40
2023-02-06T17:38:08.388Z,102545.79
2023-02-06T17:40:41.222Z,102542.13
2023-02-06T17:43:12.183Z,102536.61
2023-02-06T17:45:43.432Z,102537.67
2023-02-06T17:48:15.670Z,102526.89
2023-02-06T17:50:46.501Z,102527.92
2023-02-06T17:53:17.846Z,102520.95
2023-02-06T17:55:47.247Z,102519.94
2023-02-06T17:58:18.754Z,102524.54
2023-02-06T18:00:51.022Z,102519.21
2023-02-06T18:05:33.741Z,102522.42
2023-02-06T18:06:55.488Z,102514.10
2023-02-06T18:09:25.852Z,102518.11
2023-02-06T18:11:56.530Z,102520.78
2023-02-06T18:14:27.030Z,102518.36
2023-02-06T18:16:57.552Z,102516.82
2023-02-06T18:19:28.185Z,102516.50
2023-02-06T18:21:58.979Z,102515.63
2023-02-06T18:24:29.458Z,102509.22
2023-02-06T18:27:03.312Z,102511.32
2023-02-06T18:29:48.574Z,102509.86
2023-02-06T18:32:20.851Z,102505.61
2023-02-06T18:34:51.560Z,102505.81
2023-02-06T18:37:22.233Z,102507.92
2023-02-06T18:39:55.122Z,102513.50
2023-02-06T18:42:43.400Z,102512.47
2023-02-06T18:45:14.282Z,102508.86
2023-02-06T18:47:44.754Z,102517.56
2023-02-06T18:50:15.945Z,102527.11
2023-02-06T18:52:46.423Z,102527.84
2023-02-06T18:55:17.598Z,102530.62
2023-02-06T18:57:48.231Z,102528.19
2023-02-06T19:00:21.249Z,102525.79
2023-02-06T19:02:52.046Z,102527.66
2023-02-06T19:05:23.508Z,102528.70
2023-02-06T19:07:54.944Z,102537.39
2023-02-06T19:10:26.840Z,102538.62
2023-02-06T19:12:57.248Z,102538.50
2023-02-06T19:15:30.121Z,102528.51
2023-02-06T19:18:02.249Z,102527.08
2023-02-06T19:20:32.692Z,102523.02
2023-02-06T19:23:03.125Z,102531.77
2023-02-06T19:25:33.457Z,102537.58
2023-02-06T19:28:03.949Z,102547.77
2023-02-06T19:30:35.504Z,102553.34
2023-02-06T19:33:06.408Z,102559.13
2023-02-06T19:35:40.261Z,102553.45
2023-02-06T19:38:10.819Z,102546.45
2023-02-06T19:40:41.269Z,102553.29
2023-02-06T19:43:12.004Z,102557.20
2023-02-06T19:45:43.010Z,102561.57
2023-02-06T19:48:14.082Z,102564.08
2023-02-06T19:50:45.031Z,102561.89
2023-02-06T19:53:16.869Z,102567.20
2023-02-06T19:55:50.708Z,102563.21
2023-02-06T19:58:21.245Z,102572.21
2023-02-06T20:00:54.725Z,102569.98
2023-02-06T20:03:25.864Z,102571.70
2023-02-06T20:06:01.067Z,102561.44
2023-02-06T20:08:31.750Z,102557.86
2023-02-06T20:11:06.385Z,102566.09
2023-02-06T20:13:38.057Z,102571.84
2023-02-06T20:16:14.691Z,102579.19
2023-02-06T20:18:45.544Z,102578.23
2023-02-06T20:21:29.482Z,102589.38
2023-02-06T20:24:02.408Z,102584.20
2023-02-06T20:26:34.935Z,102589.06
2023-02-06T20:29:06.540Z,102587.73
2023-02-06T20:31:37.987Z,102585.59
2023-02-06T20:34:08.485Z,102588.27
2023-02-06T20:36:41.778Z,102587.15
2023-02-06T20:39:13.987Z,102584.67
2023-02-06T20:41:45.472Z,102581.98
2023-02-06T20:44:16.454Z,102586.27
2023-02-06T20:46:47.230Z,102584.08
2023-02-06T20:49:20.367Z,102586.23
2023-02-06T20:51:51.738Z,102584.06
2023-02-06T20:54:21.661Z,102592.91
2023-02-06T20:56:52.778Z,102595.85
2023-02-06T20:59:23.690Z,102593.59
2023-02-06T21:01:54.442Z,102583.77
2023-02-06T21:04:25.658Z,102583.10
2023-02-06T21:06:58.576Z,102590.26
2023-02-06T21:09:29.537Z,102586.64
2023-02-06T21:11:59.956Z,102588.02
2023-02-06T21:14:30.877Z,102590.40
2023-02-06T21:17:01.405Z,102586.22
2023-02-06T21:19:32.197Z,102577.91
2023-02-06T21:22:03.238Z,102580.86
2023-02-06T21:24:34.030Z,102584.02
2023-02-06T21:27:04.648Z,102580.97
2023-02-06T21:29:35.130Z,102572.04
2023-02-06T21:32:13.664Z,102570.73
2023-02-06T21:34:45.361Z,102564.61
2023-02-06T21:37:16.064Z,102582.47
2023-02-06T21:39:46.872Z,102583.46
2023-02-06T21:42:20.444Z,102589.45
2023-02-06T21:44:50.981Z,102587.13
2023-02-06T21:47:21.574Z,102575.63
2023-02-06T21:49:52.170Z,102577.15
2023-02-06T21:52:22.663Z,102569.52
2023-02-06T21:54:53.380Z,102563.80
2023-02-06T21:57:23.957Z,102565.09
2023-02-06T21:59:54.534Z,102554.60
2023-02-06T22:02:25.117Z,102549.15
2023-02-06T22:04:56.466Z,102552.85
2023-02-06T22:07:25.300Z,102557.17
2023-02-06T22:09:55.873Z,102555.24
2023-02-06T22:12:26.331Z,102558.48
2023-02-06T22:14:56.982Z,102559.82
2023-02-06T22:17:29.605Z,102560.30
2023-02-06T22:20:00.068Z,102555.30
2023-02-06T22:22:30.512Z,102551.24
2023-02-06T22:25:00.992Z,102554.77
2023-02-06T22:27:32.826Z,102559.60
2023-02-06T22:30:03.268Z,102558.39
2023-02-06T22:32:36.757Z,102559.64
2023-02-06T22:35:08.324Z,102558.91
2023-02-06T22:37:38.903Z,102557.20
2023-02-06T22:40:10.554Z,102557.08
2023-02-06T22:42:40.842Z,102558.35
2023-02-06T22:45:12.084Z,102552.02
2023-02-06T22:47:41.234Z,102554.06
2023-02-06T22:50:12.192Z,102559.98
2023-02-06T22:53:00.441Z,102566.11
2023-02-06T22:55:51.955Z,102559.98
2023-02-06T22:58:20.831Z,102562.70
2023-02-06T23:00:51.327Z,102556.53
2023-02-06T23:03:21.928Z,102556.48
2023-02-06T23:05:52.382Z,102557.19
2023-02-06T23:08:23.028Z,102561.48
2023-02-06T23:10:53.395Z,102561.13
2023-02-06T23:13:24.376Z,102560.89
2023-02-06T23:15:56.998Z,102555.48
2023-02-06T23:18:28.447Z,102553.89
2023-02-06T23:21:00.534Z,102551.24
2023-02-06T23:23:31.679Z,102557.63
2023-02-06T23:26:02.143Z,102562.84
2023-02-06T23:28:33.003Z,102558.77
2023-02-06T23:31:03.532Z,102568.50
2023-02-06T23:33:34.712Z,102554.82
2023-02-06T23:36:08.285Z,102553.33
2023-02-06T23:38:38.743Z,102557.71
2023-02-06T23:41:12.511Z,102553.11
2023-02-06T23:43:43.202Z,102556.34
2023-02-06T23:46:15.452Z,102557.94
2023-02-06T23:48:45.934Z,102569.42
2023-02-06T23:51:16.595Z,102574.77
2023-02-06T23:53:47.248Z,102573.98
2023-02-06T23:56:20.509Z,102575.15
2023-02-06T23:58:52.047Z,102580.00
